createdAt,value
2018-07-13T00:01:11.096Z,14.20
2018-07-13T00:03:40.174Z,14.20
2018-07-13T00:06:09.077Z,14.20
2018-07-13T00:08:37.946Z,14.10
2018-07-13T00:11:06.849Z,14.20
2018-07-13T00:14:19.190Z,14.20
2018-07-13T00:16:49.198Z,14.20
2018-07-13T00:19:18.864Z,14.20
2018-07-13T00:21:47.726Z,14.20
2018-07-13T00:24:16.662Z,14.10
2018-07-13T00:26:45.543Z,14.20
2018-07-13T00:29:14.452Z,14.20
2018-07-13T00:31:44.218Z,14.20
2018-07-13T00:34:13.105Z,14.10
2018-07-13T00:36:42.018Z,14.10
2018-07-13T00:39:12.338Z,14.10
2018-07-13T00:41:41.214Z,14.10
2018-07-13T00:44:10.391Z,14.10
2018-07-13T00:49:07.770Z,13.90
2018-07-13T00:51:36.639Z,13.90
2018-07-13T00:54:05.506Z,13.80
2018-07-13T00:56:34.530Z,13.80
2018-07-13T00:59:03.538Z,13.90
2018-07-13T01:01:32.486Z,13.80
2018-07-13T01:04:01.342Z,13.90
2018-07-13T01:06:30.614Z,13.80
2018-07-13T01:09:00.056Z,13.80
2018-07-13T01:11:29.023Z,13.90
2018-07-13T01:13:57.881Z,13.90
2018-07-13T01:16:26.798Z,13.80
2018-07-13T01:18:55.866Z,13.80
2018-07-13T01:21:24.938Z,13.70
2018-07-13T01:23:53.823Z,13.70
2018-07-13T01:26:22.699Z,13.70
2018-07-13T01:28:52.027Z,13.70
2018-07-13T01:31:20.870Z,13.70
2018-07-13T01:33:49.717Z,13.70
2018-07-13T01:36:18.619Z,13.60
2018-07-13T01:38:47.517Z,13.50
2018-07-13T01:41:16.388Z,13.50
2018-07-13T01:43:45.264Z,13.40
2018-07-13T01:46:14.167Z,13.40
2018-07-13T01:48:42.991Z,13.40
2018-07-13T01:51:11.991Z,13.40
2018-07-13T01:53:40.838Z,13.40
2018-07-13T01:56:09.702Z,13.50
2018-07-13T01:58:38.550Z,13.40
2018-07-13T02:01:07.508Z,13.40
2018-07-13T02:03:36.473Z,13.30
2018-07-13T02:06:05.336Z,13.30
2018-07-13T02:08:34.301Z,13.30
2018-07-13T02:18:29.426Z,13.10
2018-07-13T02:20:58.314Z,13.20
2018-07-13T02:23:27.624Z,13.10
2018-07-13T02:28:25.760Z,13.10
2018-07-13T02:30:54.646Z,13.20
2018-07-13T02:33:23.563Z,13.20
2018-07-13T02:35:52.900Z,13.10
2018-07-13T02:38:21.776Z,13.00
2018-07-13T02:40:50.638Z,13.00
2018-07-13T02:43:19.507Z,13.00
2018-07-13T02:45:48.458Z,13.00
2018-07-13T02:48:17.703Z,13.10
2018-07-13T02:50:46.564Z,13.10
2018-07-13T02:53:15.418Z,13.10
2018-07-13T02:55:44.307Z,13.10
2018-07-13T02:58:13.218Z,13.20
2018-07-13T03:00:42.492Z,13.10
2018-07-13T03:05:39.959Z,13.10
2018-07-13T03:08:08.942Z,13.20
2018-07-13T03:10:37.874Z,13.20
2018-07-13T03:13:07.050Z,13.20
2018-07-13T03:15:35.962Z,13.30
2018-07-13T03:18:04.879Z,13.30
2018-07-13T03:20:33.787Z,13.30
2018-07-13T03:23:02.829Z,13.30
2018-07-13T03:25:31.974Z,13.30
2018-07-13T03:28:00.845Z,13.30
2018-07-13T03:30:29.799Z,13.30
2018-07-13T03:32:58.682Z,13.30
2018-07-13T03:35:27.616Z,13.40
2018-07-13T03:37:56.536Z,13.40
2018-07-13T03:40:25.441Z,13.40
2018-07-13T03:45:22.960Z,13.50
2018-07-13T03:47:51.847Z,13.40
2018-07-13T03:50:20.874Z,13.40
2018-07-13T03:52:49.782Z,13.50
2018-07-13T03:55:18.654Z,13.50
2018-07-13T03:57:47.558Z,13.50
2018-07-13T04:00:16.501Z,13.70
2018-07-13T04:02:45.742Z,13.70
2018-07-13T04:07:43.102Z,13.80
2018-07-13T04:10:12.007Z,13.70
2018-07-13T04:12:40.908Z,13.90
2018-07-13T04:15:10.411Z,13.90
2018-07-13T04:20:07.843Z,14.10
2018-07-13T04:22:36.826Z,14.20
2018-07-13T04:25:05.984Z,14.40
2018-07-13T04:27:36.793Z,14.50
2018-07-13T04:30:06.124Z,14.40
2018-07-13T04:32:35.034Z,14.30
2018-07-13T04:35:04.114Z,14.30
2018-07-13T04:37:33.034Z,14.60
2018-07-13T04:40:02.487Z,14.70
2018-07-13T04:42:31.570Z,14.90
2018-07-13T04:45:00.675Z,15.00
2018-07-13T04:47:30.918Z,15.30
2018-07-13T04:50:00.179Z,15.20
2018-07-13T04:54:59.391Z,15.70
2018-07-13T04:59:57.200Z,16.00
2018-07-13T05:02:26.082Z,15.80
2018-07-13T05:04:55.006Z,16.00
2018-07-13T05:07:23.883Z,15.80
2018-07-13T05:09:52.813Z,16.00
2018-07-13T05:12:21.791Z,15.90
2018-07-13T05:14:50.711Z,16.20
2018-07-13T05:17:19.664Z,16.00
2018-07-13T05:19:48.622Z,15.70
2018-07-13T05:22:17.583Z,15.60
2018-07-13T05:27:15.107Z,16.00
2018-07-13T05:29:44.202Z,15.90
2018-07-13T05:32:14.054Z,16.00
2018-07-13T05:34:43.246Z,15.90
2018-07-13T05:37:12.658Z,16.10
2018-07-13T05:39:41.554Z,15.90
2018-07-13T05:42:10.548Z,16.10
2018-07-13T05:44:39.494Z,16.40
2018-07-13T05:47:08.391Z,16.60
2018-07-13T05:49:37.396Z,16.70
2018-07-13T05:52:06.318Z,16.50
2018-07-13T05:54:35.237Z,16.70
2018-07-13T05:57:04.126Z,16.70
2018-07-13T05:59:33.334Z,16.90
2018-07-13T06:02:02.415Z,17.00
2018-07-13T06:04:31.520Z,17.00
2018-07-13T06:07:00.659Z,16.80
2018-07-13T06:09:29.691Z,16.90
2018-07-13T06:11:59.314Z,16.70
2018-07-13T06:14:28.387Z,16.70
2018-07-13T06:16:57.344Z,16.80
2018-07-13T06:19:26.588Z,17.20
2018-07-13T06:21:55.624Z,17.40
2018-07-13T06:24:24.612Z,17.90
2018-07-13T06:26:53.642Z,17.80
2018-07-13T06:29:22.547Z,17.80
2018-07-13T06:31:51.710Z,17.70
2018-07-13T06:34:20.617Z,17.70
2018-07-13T06:36:49.496Z,17.90
2018-07-13T06:41:47.030Z,17.60
2018-07-13T06:44:15.894Z,17.70
2018-07-13T06:46:46.538Z,18.00
2018-07-13T06:49:16.025Z,17.80
2018-07-13T06:51:44.936Z,17.90
2018-07-13T06:54:14.043Z,17.80
2018-07-13T06:56:42.879Z,18.20
2018-07-13T06:59:14.527Z,18.10
2018-07-13T07:01:44.090Z,18.00
2018-07-13T07:04:43.773Z,18.50
2018-07-13T07:07:14.230Z,18.30
2018-07-13T07:09:48.419Z,18.30
2018-07-13T07:12:37.778Z,18.30
2018-07-13T07:15:06.615Z,18.40
2018-07-13T07:17:35.446Z,18.20
2018-07-13T07:20:04.319Z,18.50
2018-07-13T07:22:33.263Z,18.80
2018-07-13T07:25:02.437Z,18.50
2018-07-13T07:29:59.834Z,18.50
2018-07-13T07:32:29.054Z,18.70
2018-07-13T07:37:27.044Z,18.80
2018-07-13T07:42:24.410Z,18.80
2018-07-13T07:44:53.249Z,19.20
2018-07-13T07:47:22.096Z,19.20
2018-07-13T07:49:51.028Z,19.20
2018-07-13T07:52:19.928Z,19.80
2018-07-13T07:54:48.882Z,19.60
2018-07-13T07:57:17.778Z,19.60
2018-07-13T07:59:46.720Z,19.80
2018-07-13T08:02:15.966Z,20.00
2018-07-13T08:04:44.880Z,19.90
2018-07-13T08:07:14.457Z,19.70
2018-07-13T08:09:42.987Z,20.30
2018-07-13T08:12:11.908Z,20.10
2018-07-13T08:14:40.938Z,19.60
2018-07-13T08:17:09.839Z,19.70
2018-07-13T08:19:38.751Z,19.60
2018-07-13T08:22:12.225Z,19.90
2018-07-13T08:24:41.155Z,19.70
2018-07-13T08:27:14.886Z,19.60
2018-07-13T08:32:12.276Z,20.10
2018-07-13T08:34:41.177Z,20.20
2018-07-13T08:37:10.021Z,19.70
2018-07-13T08:39:38.882Z,19.80
2018-07-13T08:42:08.103Z,19.40
2018-07-13T08:44:36.951Z,19.70
2018-07-13T08:47:05.846Z,20.10
2018-07-13T08:49:34.687Z,20.20
2018-07-13T08:52:04.214Z,19.70
2018-07-13T08:54:33.095Z,20.00
2018-07-13T08:57:02.058Z,19.50
2018-07-13T08:59:30.977Z,19.90
2018-07-13T09:01:59.915Z,19.90
2018-07-13T09:04:29.159Z,19.90
2018-07-13T09:09:26.625Z,20.20
2018-07-13T09:11:55.467Z,19.90
2018-07-13T09:14:24.348Z,20.30
2018-07-13T09:16:53.211Z,21.40
2018-07-13T09:19:22.047Z,21.10
2018-07-13T09:21:50.947Z,20.90
2018-07-13T09:24:19.879Z,21.10
2018-07-13T09:26:48.748Z,20.50
2018-07-13T09:29:18.147Z,21.60
2018-07-13T09:31:47.006Z,21.10
2018-07-13T09:34:15.970Z,21.10
2018-07-13T09:36:44.849Z,20.90
2018-07-13T09:39:13.979Z,20.80
2018-07-13T09:41:42.856Z,20.70
2018-07-13T09:44:11.715Z,20.80
2018-07-13T09:46:40.580Z,20.50
2018-07-13T09:49:09.386Z,20.80
2018-07-13T09:51:38.338Z,21.30
2018-07-13T09:54:07.845Z,20.80
2018-07-13T09:56:36.683Z,21.60
2018-07-13T09:59:07.156Z,21.30
2018-07-13T10:01:35.986Z,21.50
2018-07-13T10:04:04.875Z,21.40
2018-07-13T10:06:33.772Z,21.70
2018-07-13T10:09:02.667Z,21.60
2018-07-13T10:11:31.527Z,21.40
2018-07-13T10:14:01.336Z,21.60
2018-07-13T10:16:30.262Z,22.00
2018-07-13T10:18:59.103Z,21.60
2018-07-13T10:21:28.254Z,21.50
2018-07-13T10:23:57.067Z,21.40
2018-07-13T10:26:28.390Z,21.60
2018-07-13T10:28:57.275Z,21.70
2018-07-13T10:31:26.242Z,21.40
2018-07-13T10:33:55.270Z,21.10
2018-07-13T10:36:24.440Z,21.10
2018-07-13T10:38:53.334Z,21.70
2018-07-13T10:41:22.214Z,21.90
2018-07-13T10:43:51.082Z,21.60
2018-07-13T10:46:19.943Z,22.10
2018-07-13T10:48:48.842Z,21.80
2018-07-13T10:51:17.653Z,22.10
2018-07-13T10:53:46.498Z,22.10
2018-07-13T10:56:15.330Z,22.00
2018-07-13T10:58:44.288Z,21.80
2018-07-13T11:01:13.322Z,21.90
2018-07-13T11:03:42.214Z,22.20
2018-07-13T11:06:11.085Z,22.10
2018-07-13T11:08:40.171Z,22.60
2018-07-13T11:11:09.074Z,22.60
2018-07-13T11:13:37.999Z,22.30
2018-07-13T11:18:35.279Z,22.40
2018-07-13T11:21:05.137Z,22.60
2018-07-13T11:23:34.050Z,23.00
2018-07-13T11:26:03.223Z,22.40
2018-07-13T11:31:00.604Z,22.70
2018-07-13T11:33:29.478Z,22.90
2018-07-13T11:35:58.679Z,22.70
2018-07-13T11:38:27.522Z,22.50
2018-07-13T11:40:56.392Z,23.20
2018-07-13T11:43:25.228Z,22.70
2018-07-13T11:45:54.179Z,22.60
2018-07-13T11:48:23.007Z,23.00
2018-07-13T11:50:51.982Z,23.50
2018-07-13T11:53:20.811Z,23.60
2018-07-13T11:55:49.706Z,23.40
2018-07-13T11:58:18.604Z,23.50
2018-07-13T12:00:47.438Z,23.10
2018-07-13T12:03:16.281Z,23.10
2018-07-13T12:05:45.138Z,23.00
2018-07-13T12:08:13.972Z,22.90
2018-07-13T12:10:42.983Z,23.20
2018-07-13T12:13:11.842Z,23.30
2018-07-13T12:15:40.671Z,23.00
2018-07-13T12:18:09.502Z,22.80
2018-07-13T12:20:38.443Z,22.90
2018-07-13T12:23:07.277Z,23.20
2018-07-13T12:28:04.775Z,23.00
2018-07-13T12:30:33.823Z,23.70
2018-07-13T12:33:02.767Z,23.50
2018-07-13T12:35:31.650Z,23.50
2018-07-13T12:38:00.727Z,23.40
2018-07-13T12:40:29.580Z,23.70
2018-07-13T12:42:58.487Z,23.50
2018-07-13T12:45:28.252Z,23.80
2018-07-13T12:47:57.172Z,23.80
2018-07-13T12:50:26.050Z,23.60
2018-07-13T12:52:54.993Z,23.50
2018-07-13T12:57:52.427Z,23.70
2018-07-13T13:00:21.551Z,23.70
2018-07-13T13:02:50.436Z,23.60
2018-07-13T13:05:19.282Z,23.40
2018-07-13T13:07:48.194Z,23.50
2018-07-13T13:10:17.216Z,23.70
2018-07-13T13:12:46.101Z,23.50
2018-07-13T13:15:15.452Z,23.40
2018-07-13T13:17:44.263Z,23.90
2018-07-13T13:20:13.623Z,23.70
2018-07-13T13:22:42.478Z,23.70
2018-07-13T13:25:11.611Z,23.70
2018-07-13T13:27:40.481Z,24.00
2018-07-13T13:30:09.361Z,24.10
2018-07-13T13:32:38.254Z,23.60
2018-07-13T13:35:07.153Z,23.50
2018-07-13T13:37:36.249Z,24.00
2018-07-13T13:40:05.154Z,24.20
2018-07-13T13:42:33.994Z,23.80
2018-07-13T13:45:02.863Z,23.50
2018-07-13T13:47:31.759Z,23.70
2018-07-13T13:50:00.598Z,23.70
2018-07-13T13:52:29.602Z,24.00
2018-07-13T13:54:58.446Z,23.80
2018-07-13T13:57:27.313Z,23.90
2018-07-13T13:59:56.242Z,23.70
2018-07-13T14:02:25.414Z,23.70
2018-07-13T14:07:22.780Z,23.80
2018-07-13T14:12:20.268Z,23.80
2018-07-13T14:14:49.074Z,23.90
2018-07-13T14:17:20.937Z,23.70
2018-07-13T14:19:50.227Z,24.20
2018-07-13T14:22:19.154Z,23.90
2018-07-13T14:24:48.034Z,23.90
2018-07-13T14:27:16.886Z,23.70
2018-07-13T14:29:45.722Z,23.80
2018-07-13T14:32:14.580Z,23.80
2018-07-13T14:34:43.410Z,23.90
2018-07-13T14:37:12.288Z,23.80
2018-07-13T14:39:41.136Z,23.70
2018-07-13T14:42:09.955Z,23.50
2018-07-13T14:44:38.821Z,23.50
2018-07-13T14:47:07.853Z,23.60
2018-07-13T14:49:36.521Z,23.80
2018-07-13T14:52:05.396Z,23.70
2018-07-13T14:54:34.236Z,23.60
2018-07-13T14:57:03.117Z,23.60
2018-07-13T14:59:32.007Z,23.50
2018-07-13T15:02:00.947Z,23.70
2018-07-13T15:04:29.946Z,23.50
2018-07-13T15:06:58.778Z,23.70
2018-07-13T15:09:28.218Z,23.70
2018-07-13T15:11:57.126Z,23.60
2018-07-13T15:14:26.015Z,23.70
2018-07-13T15:16:54.918Z,23.80
2018-07-13T15:19:23.787Z,24.10
2018-07-13T15:21:52.735Z,24.00
2018-07-13T15:24:21.533Z,24.30
2018-07-13T15:26:50.404Z,23.70
2018-07-13T15:29:19.259Z,23.90
2018-07-13T15:31:48.143Z,23.70
2018-07-13T15:34:17.186Z,23.90
2018-07-13T15:39:14.885Z,23.80
2018-07-13T15:44:12.279Z,23.70
2018-07-13T15:46:41.258Z,23.60
2018-07-13T15:49:10.146Z,23.20
2018-07-13T15:51:38.999Z,23.10
2018-07-13T15:54:07.930Z,22.80
2018-07-13T15:59:05.298Z,23.30
2018-07-13T16:01:34.160Z,23.40
2018-07-13T16:04:03.598Z,23.20
2018-07-13T16:06:32.515Z,23.40
2018-07-13T16:09:01.358Z,23.60
2018-07-13T16:11:30.194Z,23.80
2018-07-13T16:13:59.036Z,23.50
2018-07-13T16:16:28.093Z,23.30
2018-07-13T16:18:56.957Z,23.10
2018-07-13T16:21:25.881Z,23.40
2018-07-13T16:23:54.773Z,23.20
2018-07-13T16:26:23.638Z,23.10
2018-07-13T16:28:52.885Z,23.20
2018-07-13T16:33:50.235Z,23.70
2018-07-13T16:36:19.096Z,23.10
2018-07-13T16:38:47.967Z,23.40
2018-07-13T16:41:16.838Z,23.00
2018-07-13T16:43:45.713Z,23.30
2018-07-13T16:46:14.619Z,22.70
2018-07-13T16:48:43.630Z,22.80
2018-07-13T16:51:12.518Z,22.90
2018-07-13T16:53:41.718Z,22.60
2018-07-13T16:56:10.621Z,22.70
2018-07-13T16:58:39.430Z,24.10
2018-07-13T17:01:08.358Z,25.20
2018-07-13T17:03:37.327Z,26.50
2018-07-13T17:06:06.158Z,26.90
2018-07-13T17:08:35.483Z,26.30
2018-07-13T17:11:04.354Z,26.40
2018-07-13T17:13:33.190Z,25.90
2018-07-13T17:18:31.175Z,27.20
2018-07-13T17:23:28.579Z,26.70
2018-07-13T17:25:57.523Z,26.00
2018-07-13T17:28:26.430Z,26.30
2018-07-13T17:30:55.357Z,25.90
2018-07-13T17:33:24.209Z,26.10
2018-07-13T17:35:53.094Z,26.40
2018-07-13T17:38:22.000Z,26.10
2018-07-13T17:40:50.929Z,25.60
2018-07-13T17:43:19.858Z,26.10
2018-07-13T17:45:48.830Z,25.40
2018-07-13T17:48:17.802Z,25.40
2018-07-13T17:50:46.711Z,26.50
2018-07-13T17:53:15.595Z,26.80
2018-07-13T17:55:44.524Z,25.50
2018-07-13T18:00:41.967Z,25.60
2018-07-13T18:03:10.874Z,25.80
2018-07-13T18:05:39.750Z,25.10
2018-07-13T18:08:08.636Z,25.30
2018-07-13T18:10:37.479Z,25.10
2018-07-13T18:13:06.882Z,24.70
2018-07-13T18:15:35.929Z,25.00
2018-07-13T18:18:04.843Z,25.50
2018-07-13T18:20:33.715Z,25.20
2018-07-13T18:23:02.635Z,24.90
2018-07-13T18:25:31.454Z,24.60
2018-07-13T18:28:00.320Z,24.50
2018-07-13T18:30:29.206Z,24.50
2018-07-13T18:32:58.702Z,24.50
2018-07-13T18:37:56.111Z,23.80
2018-07-13T18:40:24.975Z,23.40
2018-07-13T18:42:53.845Z,23.20
2018-07-13T18:45:22.697Z,23.20
2018-07-13T18:47:51.822Z,23.00
2018-07-13T18:52:49.668Z,22.60
2018-07-13T18:55:19.274Z,22.30
2018-07-13T18:57:48.376Z,21.20
2018-07-13T19:00:17.282Z,20.90
2018-07-13T19:02:46.195Z,20.70
2018-07-13T19:05:15.059Z,20.70
2018-07-13T19:07:43.920Z,20.50
2018-07-13T19:10:13.274Z,20.40
2018-07-13T19:15:10.636Z,20.20
2018-07-13T19:20:08.050Z,20.10
2018-07-13T19:22:36.953Z,19.90
2018-07-13T19:25:05.941Z,19.70
2018-07-13T19:27:35.043Z,19.70
2018-07-13T19:30:04.187Z,19.50
2018-07-13T19:32:33.163Z,19.40
2018-07-13T19:35:02.423Z,19.50
2018-07-13T19:37:31.568Z,19.30
2018-07-13T19:42:29.145Z,19.60
2018-07-13T19:44:58.144Z,19.30
2018-07-13T19:47:27.030Z,19.10
2018-07-13T19:49:55.932Z,19.00
2018-07-13T19:52:24.782Z,18.90
2018-07-13T19:54:53.670Z,19.00
2018-07-13T19:57:22.732Z,19.00
2018-07-13T19:59:51.449Z,19.20
2018-07-13T20:02:20.355Z,18.80
2018-07-13T20:04:49.223Z,18.70
2018-07-13T20:07:18.118Z,18.50
2018-07-13T20:09:46.974Z,18.50
2018-07-13T20:12:15.874Z,18.40
2018-07-13T20:14:44.770Z,18.30
2018-07-13T20:17:13.695Z,18.90
2018-07-13T20:19:42.495Z,18.40
2018-07-13T20:22:11.384Z,18.20
2018-07-13T20:24:40.283Z,18.30
2018-07-13T20:27:09.134Z,18.20
2018-07-13T20:29:38.044Z,18.30
2018-07-13T20:32:06.983Z,18.20
2018-07-13T20:34:35.853Z,18.20
2018-07-13T20:37:10.787Z,17.90
2018-07-13T20:39:39.661Z,17.80
2018-07-13T20:42:08.505Z,17.90
2018-07-13T20:44:37.334Z,17.80
2018-07-13T20:47:06.230Z,17.70
2018-07-13T20:49:35.092Z,17.80
2018-07-13T20:52:03.978Z,17.80
2018-07-13T20:54:32.859Z,17.60
2018-07-13T20:57:01.697Z,17.50
2018-07-13T20:59:30.573Z,17.70
2018-07-13T21:01:59.438Z,17.60
2018-07-13T21:04:28.302Z,17.50
2018-07-13T21:06:57.158Z,17.40
2018-07-13T21:09:26.018Z,17.40
2018-07-13T21:31:15.571Z,17.60
2018-07-13T21:36:21.541Z,17.20
2018-07-13T21:38:50.484Z,17.10
2018-07-13T21:41:19.383Z,16.80
2018-07-13T21:43:49.076Z,16.80
2018-07-13T21:46:18.014Z,16.70
2018-07-13T21:48:47.285Z,16.80
2018-07-13T21:51:16.239Z,16.60
2018-07-13T21:53:45.202Z,16.50
2018-07-13T21:56:14.170Z,16.50
2018-07-13T21:58:43.109Z,16.40
2018-07-13T22:01:11.992Z,16.40
2018-07-13T22:03:41.055Z,16.50
2018-07-13T22:06:10.006Z,16.50
2018-07-13T22:08:38.939Z,16.40
2018-07-13T22:11:08.005Z,16.40
2018-07-13T22:13:37.373Z,16.30
2018-07-13T22:16:06.669Z,16.20
2018-07-13T22:18:35.728Z,16.20
2018-07-13T22:21:04.743Z,16.10
2018-07-13T22:23:33.734Z,16.10
2018-07-13T22:26:02.591Z,16.10
2018-07-13T22:28:31.495Z,16.00
2018-07-13T22:31:00.433Z,16.30
2018-07-13T22:33:29.294Z,15.90
2018-07-13T22:35:58.137Z,16.00
2018-07-13T22:38:27.138Z,15.80
2018-07-13T22:40:55.970Z,15.80
2018-07-13T22:43:24.854Z,15.90
2018-07-13T22:45:53.703Z,15.80
2018-07-13T22:48:22.598Z,15.80
2018-07-13T22:50:51.712Z,15.80
2018-07-13T22:53:20.558Z,15.80
2018-07-13T22:55:49.478Z,15.60
2018-07-13T22:58:18.362Z,15.60
2018-07-13T23:00:47.250Z,15.60
2018-07-13T23:03:16.509Z,15.50
2018-07-13T23:08:13.930Z,15.60
2018-07-13T23:10:43.370Z,15.50
2018-07-13T23:13:12.182Z,15.40
2018-07-13T23:15:41.483Z,15.50
2018-07-13T23:20:38.881Z,15.30
2018-07-13T23:23:07.730Z,15.30
2018-07-13T23:25:36.654Z,15.30
2018-07-13T23:28:05.980Z,15.20
2018-07-13T23:30:34.866Z,15.20
2018-07-13T23:33:03.720Z,15.20
2018-07-13T23:35:32.586Z,15.10
2018-07-13T23:38:01.414Z,15.00
2018-07-13T23:40:30.753Z,15.00
2018-07-13T23:55:08.747Z,15.00
2018-07-13T23:57:37.966Z,14.80
